Home > Products > Valid Products > TAF

000
FTUS42 KCHS 160200 AAA
TAFSAV
TAF AMD
KSAV 160252Z 1603/1624 00000KT P6SM SCT015 SCT040 BKN100
      TEMPO 1605/1609 5SM BR SCT005 BKN015
     FM160900 VRB02KT 4SM BR SCT004 BKN010
      TEMPO 1610/1613 2SM BR BKN004
     FM161400 32005KT P6SM SCT015 BKN040
     FM161700 VRB06KT P6SM VCTS SCT025CB BKN040
      TEMPO 1618/1622 4SM TSRA BR SCT015 BKN025CB=



000
FTUS42 KCHS 160200 AAB
TAFCHS
TAF AMD
KCHS 160249Z 1603/1624 00000KT P6SM SCT006 OVC080
      TEMPO 1604/1608 4SM -SHRA BR SCT003 BKN006
     FM160800 VRB02KT 2SM BR SCT003 OVC006
     FM161400 32005KT P6SM SCT015 BKN040
     FM161800 VRB06KT P6SM VCTS SCT035CB BKN050=



000
FTUS42 KCHS 160100 AAA
TAFCHS
TAF AMD
KCHS 160116Z 1601/1624 VRB03KT P6SM -SHRA FEW006 SCT015 OVC100
     FM160400 VRB03KT 5SM BR SCT006 SCT015 BKN060
     FM160800 VRB02KT 2SM BR SCT003 OVC008
     FM161400 32005KT P6SM SCT015 BKN040
     FM161800 VRB06KT P6SM VCTS SCT035CB BKN050=



000
FTUS42 KCHS 152300
TAFCHS
TAF
KCHS 152329Z 1600/1624 VRB03KT 5SM -SHRA BR SCT006 BKN035
     FM160200 VRB03KT 6SM BR SCT006 SCT015 BKN035
     FM160800 VRB02KT 2SM BR SCT003 OVC008
     FM161400 32005KT P6SM SCT015 BKN040
     FM161800 VRB06KT P6SM VCTS SCT035CB BKN050=



000
FTUS42 KCHS 152300
TAFSAV
TAF
KSAV 152329Z 1600/1624 VRB02KT P6SM FEW006 SCT040 BKN100
     FM160900 VRB02KT 3SM BR SCT003 BKN011
     FM161400 32005KT P6SM SCT015 BKN040
     FM161700 VRB06KT P6SM VCTS SCT025CB BKN040
      TEMPO 1618/1622 4SM TSRA BR SCT015 BKN025CB=



000
FTUS42 KCHS 152000 AAA
TAFSAV
TAF AMD
KSAV 152054Z 1521/1618 VRB05KT P6SM -SHRA SCT025 BKN050
     FM152300 VRB04KT P6SM BKN040
     FM160900 30003KT 6SM BR SCT003 BKN015
     FM161400 32005KT P6SM SCT025 BKN050=



000
FTUS42 KCHS 152000 AAA
TAFCHS
TAF AMD
KCHS 152004Z 1520/1618 VRB04KT P6SM VCTS SCT030CB BKN060
      TEMPO 1520/1522 1/2SM TSRA BKN015CB
     FM152200 13006KT P6SM BKN040
     FM160900 30003KT 6SM BR SCT003 BKN015
     FM161400 32005KT P6SM SCT025 BKN050=



000
FTUS42 KCHS 151700
TAFSAV
TAF
KSAV 151732Z 1518/1618 VRB03KT P6SM VCSH SCT015 BKN050
     FM151900 11005KT P6SM VCTS BKN035CB
      TEMPO 1519/1522 2SM TSRA BR BKN030CB
     FM152300 VRB04KT P6SM BKN040
     FM160900 30003KT 6SM BR SCT003 BKN015
     FM161400 32005KT P6SM SCT025 BKN050=



000
FTUS42 KCHS 151700
TAFCHS
TAF
KCHS 151732Z 1518/1618 VRB04KT P6SM SCT015 BKN060
      TEMPO 1519/1522 4SM -TSRA BR BKN040CB
     FM152200 13006KT P6SM BKN040
     FM160900 30003KT 6SM BR SCT003 BKN015
     FM161400 32005KT P6SM SCT025 BKN050=



000
FTUS42 KCHS 151600 AAC
TAFSAV
TAF AMD
KSAV 151631Z 1517/1612 VRB03KT P6SM SCT015 BKN080
     FM151900 VRB03KT 4SM -TSRA BR BKN040CB
      TEMPO 1519/1522 2SM TSRA BR BKN030CB
     FM152300 13006KT P6SM BKN040=



000
FTUS42 KCHS 151600 AAD
TAFCHS
TAF AMD
KCHS 151629Z 1516/1612 05004KT P6SM BKN015
     FM151700 VRB04KT P6SM SCT015 BKN060
      TEMPO 1519/1522 4SM -TSRA BR BKN040CB
     FM152200 13006KT P6SM BKN040=



000
FTUS42 KCHS 151500 AAC
TAFCHS
TAF AMD
KCHS 151519Z 1515/1612 04004KT P6SM SCT007 BKN035
     FM151600 VRB04KT P6SM SCT015 BKN060
      TEMPO 1519/1522 4SM -TSRA BR BKN040CB
     FM152200 13006KT P6SM BKN040=



000
FTUS42 KCHS 151500 AAB
TAFCHS
TAF AMD
KCHS 151503Z 1515/1612 VRB03KT P6SM BKN007
     FM151600 VRB03KT P6SM BKN015
     FM151700 VRB03KT P6SM SCT015 BKN035
      TEMPO 1519/1522 4SM -TSRA BR BKN040CB
     FM152200 13006KT P6SM BKN040=



000
FTUS42 KCHS 151400 AAB
TAFSAV
TAF AMD
KSAV 151446Z 1515/1612 06004KT 5SM BR OVC004
     FM151530 VRB04KT P6SM SCT008 BKN010
     FM151600 VRB03KT P6SM SCT008 BKN025
     FM151700 VRB03KT P6SM SCT015 BKN080
     FM151900 VRB03KT 4SM -TSRA BR BKN040CB
      TEMPO 1519/1522 2SM TSRA BR BKN030CB
     FM152300 13006KT P6SM BKN040=



000
FTUS42 KCHS 151300 AAA
TAFSAV
TAF AMD
KSAV 151321Z 1513/1612 VRB03KT 3SM BR SCT004 BKN010
      TEMPO 1513/1514 1/2SM FG BKN002
     FM151430 VRB03KT P6SM SCT008 BKN025
     FM151500 VRB03KT P6SM SCT015 BKN080
     FM151900 VRB03KT 4SM -TSRA BR BKN040CB
      TEMPO 1519/1522 2SM TSRA BR BKN030CB
     FM152300 13006KT P6SM BKN040=



000
FTUS42 KCHS 151200 AAA
TAFCHS
TAF AMD
KCHS 151239Z 1513/1612 03005KT 3/4SM BR OVC003
     FM151330 03005KT 3SM BR OVC005
     FM151400 VRB03KT P6SM OVC008
      TEMPO 1514/1515 SCT008 BKN015
     FM151500 VRB03KT P6SM SCT015 OVC050
      TEMPO 1519/1522 4SM -TSRA BR BKN040CB
     FM152200 13006KT P6SM BKN040=



000
FTUS42 KCHS 151100
TAFCHS
TAF
KCHS 151137Z 1512/1612 01004KT 4SM BR OVC004
     FM151400 VRB03KT P6SM OVC008
      TEMPO 1514/1515 SCT008 BKN015
     FM151500 VRB03KT P6SM SCT015 OVC050
      TEMPO 1519/1522 4SM -TSRA BR BKN040CB
     FM152200 13006KT P6SM BKN040=



000
FTUS42 KCHS 151100
TAFSAV
TAF
KSAV 151137Z 1512/1612 VRB03KT 3SM BR SCT004 SCT020
      TEMPO 1512/1513 1SM BR SCT003 BKN004
     FM151330 VRB03KT P6SM SCT008 BKN025
     FM151500 VRB03KT P6SM SCT015 BKN080
     FM151900 VRB03KT 4SM -TSRA BR BKN040CB
      TEMPO 1519/1522 2SM TSRA BR BKN030CB
     FM152300 13006KT P6SM BKN040=



000
FTUS42 KCHS 151000 AAD
TAFSAV
TAF AMD
KSAV 151028Z 1510/1606 VRB03KT P6SM SCT008 SCT020
      TEMPO 1510/1512 SCT003 BKN005
     FM151300 VRB03KT P6SM SCT008 BKN025
     FM151600 VRB03KT P6SM SCT015 OVC060
      TEMPO 1517/1520 4SM -TSRA BR BKN040CB=



000
FTUS42 KCHS 151000 AAC
TAFSAV
TAF AMD
KSAV 151010Z 1510/1606 VRB03KT P6SM SCT008 SCT020
      TEMPO 1511/1512 BKN008
     FM151300 VRB03KT P6SM SCT008 BKN025
     FM151600 VRB03KT P6SM SCT015 OVC060
      TEMPO 1517/1520 4SM -TSRA BR BKN040CB=



000
FTUS42 KCHS 151000 AAA
TAFCHS
TAF AMD
KCHS 151008Z 1510/1606 03005KT 4SM BR SCT004 OVC006
      TEMPO 1510/1512 SCT003 OVC004
     FM151300 VRB03KT P6SM SCT010 BKN020
     FM151800 VRB03KT P6SM SCT015 OVC050
      TEMPO 1519/1522 4SM -TSRA BR BKN040CB
     FM152200 13006KT P6SM BKN040=



000
FTUS42 KCHS 150800 AAB
TAFSAV
TAF AMD
KSAV 150853Z 1509/1606 VRB03KT P6SM SCT008 SCT020
     FM151030 VRB03KT P6SM SCT004 OVC008
     FM151300 VRB03KT P6SM SCT008 BKN025
     FM151600 VRB03KT P6SM SCT015 OVC060
      TEMPO 1517/1520 4SM -TSRA BR BKN040CB=



000
FTUS42 KCHS 150700 AAA
TAFSAV
TAF AMD
KSAV 150726Z 1507/1606 VRB03KT P6SM SCT008 BKN020
      TEMPO 1508/1509 BKN008
     FM150900 VRB03KT P6SM SCT004 OVC008
     FM151300 VRB03KT P6SM SCT008 BKN025
     FM151600 VRB03KT P6SM SCT015 OVC060
      TEMPO 1517/1520 4SM -TSRA BR BKN040CB=



000
FTUS42 KCHS 150500
TAFSAV
TAF
KSAV 150536Z 1506/1606 VRB03KT P6SM SCT020 BKN080
     FM150900 VRB03KT P6SM OVC008
     FM151300 VRB03KT P6SM SCT008 BKN025
     FM151600 VRB03KT P6SM SCT015 OVC060
      TEMPO 1517/1520 4SM -TSRA BR BKN040CB=



000
FTUS42 KCHS 150500
TAFCHS
TAF
KCHS 150536Z 1506/1606 03005KT P6SM SCT004 BKN008
     FM150900 VRB03KT 5SM BR SCT004 OVC006
     FM151300 VRB03KT P6SM SCT010 BKN020
     FM151800 VRB03KT P6SM SCT015 OVC050
      TEMPO 1519/1522 4SM -TSRA BR BKN040CB
     FM152200 13006KT P6SM BKN040=



000
FTUS42 KCHS 150300 AAC
TAFCHS
TAF AMD
KCHS 150331Z 1504/1524 03005KT P6SM SCT008 OVC015
      TEMPO 1504/1508 BKN008
     FM150800 VRB04KT 6SM BR SCT004 OVC006
     FM151400 VRB04KT P6SM SCT009 BKN015
     FM151800 VRB05KT P6SM -SHRA VCTS SCT015 BKN025CB OVC040=



000
FTUS42 KCHS 150300 AAB
TAFSAV
TAF AMD
KSAV 150327Z 1503/1524 VRB05KT P6SM VCTS SCT015 SCT025CB OVC050
      TEMPO 1503/1506 6SM -TSRA SCT008 BKN020CB
     FM150600 VRB04KT P6SM VCSH SCT008 BKN015
      TEMPO 1506/1509 BKN008
     FM150900 VRB03KT P6SM OVC008
     FM151600 VRB05KT 6SM -SHRA VCTS SCT015 BKN030CB OVC050=



000
FTUS42 KCHS 150200 AAB
TAFCHS
TAF AMD
KCHS 150216Z 1502/1524 02005KT P6SM SCT008 SCT015 OVC150
      TEMPO 1502/1506 BKN008 BKN015
     FM150600 VRB04KT P6SM MIFG SCT006 OVC011
      TEMPO 1506/1509 BKN006
     FM150900 VRB03KT 6SM BR OVC006
     FM151400 VRB04KT P6SM SCT009 BKN015
     FM151800 VRB05KT P6SM -SHRA VCTS SCT015 BKN025CB OVC040=



000
FTUS42 KCHS 150100 AAA
TAFSAV
TAF AMD
KSAV 150152Z 1502/1524 12005KT P6SM VCTS SCT025CB SCT050 BKN150
      TEMPO 1502/1505 VRB20G25KT 6SM -TSRA SCT015 SCT025CB BKN035
     FM150500 VRB04KT P6SM VCSH SCT020 BKN035
      TEMPO 1505/1509 SCT015 BKN025
     FM150900 VRB03KT P6SM SCT009 OVC015
      TEMPO 1509/1513 BKN008
     FM151600 VRB05KT 6SM -SHRA VCTS SCT020 BKN030CB OVC050=



000
FTUS42 KCHS 150000 AAA
TAFCHS
TAF AMD
KCHS 150048Z 1501/1524 04005KT P6SM VCSH SCT008 OVC015
      TEMPO 1501/1505 BKN008
     FM150500 01004KT P6SM SCT006 OVC011
      TEMPO 1505/1509 BKN006
     FM150900 VRB03KT P6SM OVC006
     FM151400 VRB04KT P6SM SCT009 BKN015
     FM151800 VRB05KT P6SM -SHRA VCTS SCT015 BKN025CB OVC040=



000
FTUS42 KCHS 142300
TAFSAV
TAF
KSAV 142326Z 1500/1524 12005KT P6SM VCSH SCT020 BKN035
      TEMPO 1504/1508 SCT015 BKN025
     FM150800 VRB03KT P6SM SCT009 OVC015
      TEMPO 1509/1513 BKN008
     FM151600 VRB05KT 6SM -SHRA VCTS SCT020 BKN030CB OVC050=



000
FTUS42 KCHS 142300
TAFCHS
TAF
KCHS 142326Z 1500/1524 04005KT P6SM VCSH BKN012 OVC020
      TEMPO 1500/1504 SCT015 SCT025 OVC035
     FM150600 36004KT P6SM SCT006 OVC012
      TEMPO 1509/1513 BKN006
     FM151600 VRB05KT P6SM -SHRA VCTS SCT015 BKN025CB OVC040=



000
FTUS42 KCHS 142200 AAE
TAFCHS
TAF AMD
KCHS 142231Z 1423/1518 05007KT P6SM VCTS BKN012 BKN025CB
     FM150100 04004KT P6SM VCSH SCT015 BKN025
      TEMPO 1509/1513 SCT007 BKN010
     FM151600 VRB03KT P6SM SCT010 BKN040=



000
FTUS42 KCHS 142200 AAD
TAFCHS
TAF AMD
KCHS 142201Z 1422/1518 07006KT P6SM VCTS SCT015CB BKN020
     FM150000 04004KT P6SM SCT025 BKN050
     FM150300 03005KT P6SM SCT015 BKN028
      TEMPO 1509/1513 SCT007 BKN010
     FM151600 VRB03KT P6SM SCT010 BKN040=



000
FTUS42 KCHS 142100 AAC
TAFSAV
TAF AMD
KSAV 142122Z 1421/1518 11007KT P6SM VCTS SCT025 SCT035CB BKN080
     FM150000 VRB03KT P6SM SCT025 BKN050
      TEMPO 1509/1513 SCT007 BKN010
     FM151600 VRB03KT P6SM SCT010 BKN040=



000
FTUS42 KCHS 142100 AAC
TAFCHS
TAF AMD
KCHS 142109Z 1421/1518 07006KT P6SM VCSH SCT015 BKN025
      TEMPO 1421/1423 5SM SHRA BR BKN015
     FM142300 04004KT P6SM SCT025 BKN050
     FM150300 03005KT P6SM SCT015 BKN028
      TEMPO 1509/1513 SCT007 BKN010
     FM151600 VRB03KT P6SM SCT010 BKN040=



000
FTUS42 KCHS 142100 AAB
TAFCHS
TAF AMD
KCHS 142101Z 1421/1518 07006KT P6SM VCSH SCT015 BKN025
     FM142300 04004KT P6SM SCT025 BKN050
     FM150300 03005KT P6SM SCT015 BKN028
      TEMPO 1509/1513 SCT007 BKN010
     FM151600 VRB03KT P6SM SCT010 BKN040=



000
FTUS42 KCHS 142000 AAB
TAFSAV
TAF AMD
KSAV 142058Z 1421/1518 11007KT P6SM VCSH SCT025 BKN080
     FM150000 VRB03KT P6SM SCT025 BKN050
      TEMPO 1509/1513 SCT007 BKN010
     FM151600 VRB03KT P6SM SCT010 BKN040=



000
FTUS42 KCHS 142000 AAA
TAFSAV
TAF AMD
KSAV 142008Z 1420/1518 14005KT P6SM VCSH SCT025 BKN080
      TEMPO 1422/1424 3SM TSRA BR SCT020 BKN040CB
     FM150000 VRB03KT P6SM SCT025 BKN050
      TEMPO 1509/1513 SCT007 BKN010
     FM151600 VRB03KT P6SM SCT010 BKN040=



000
FTUS42 KCHS 142000 AAA
TAFCHS
TAF AMD
KCHS 142006Z 1420/1518 07006KT P6SM VCSH SCT025 BKN035
      TEMPO 1420/1421 4SM RA BR BKN025
     FM142300 04004KT P6SM SCT025 BKN050
     FM150300 03005KT P6SM SCT015 BKN028
      TEMPO 1509/1513 SCT007 BKN010
     FM151600 VRB03KT P6SM SCT010 BKN040=



000
FTUS42 KCHS 141800 CCA
TAFCHS
TAF COR
KCHS 141816Z 1418/1518 07006KT P6SM VCSH SCT025 BKN035
      TEMPO 1418/1420 BKN030
     FM142300 04004KT P6SM SCT025 BKN050
     FM150300 03005KT P6SM SCT015 BKN028
      TEMPO 1509/1513 SCT007 BKN010
     FM151600 VRB03KT P6SM SCT010 BKN040=



000
FTUS42 KCHS 141700
TAFCHS
TAF
KCHS 141721Z 1418/1518 07006KT P6SM VCSH SCT025 BKN035
     FM142300 04004KT P6SM SCT025 BKN050
     FM150300 03005KT P6SM SCT015 BKN028
      TEMPO 1509/1513 SCT007 BKN010
     FM151600 VRB03KT P6SM SCT010 BKN040=



000
FTUS42 KCHS 141700
TAFSAV
TAF
KSAV 141721Z 1418/1518 07005KT P6SM VCSH SCT025 BKN060
      TEMPO 1419/1423 3SM TSRA BR SCT020 BKN040CB
     FM150000 VRB03KT P6SM SCT025 BKN050
      TEMPO 1509/1513 SCT007 BKN010
     FM151600 VRB03KT P6SM SCT010 BKN040=



000
FTUS42 KCHS 141500 AAD
TAFCHS
TAF AMD
KCHS 141532Z 1416/1512 VRB03KT P6SM SCT008 OVC015
     FM141630 09005KT P6SM SCT015 OVC025
     FM141800 06006KT P6SM VCTS SCT025 BKN035CB
      TEMPO 1419/1423 3SM TSRA BR SCT020 BKN035CB
     FM142300 04004KT P6SM SCT025 BKN050
     FM150300 03005KT P6SM SCT015 BKN028=



000
FTUS42 KCHS 141400 CCB
TAFCHS
TAF COR
KCHS 141443Z 1414/1512 06005KT P6SM SCT008 BKN025
     FM141700 06006KT P6SM VCTS SCT025 BKN035CB
      TEMPO 1418/1422 3SM TSRA BR SCT020 BKN035CB
     FM142300 04004KT P6SM SCT025 BKN050
     FM150300 03005KT P6SM SCT015 BKN028=



000
FTUS42 KCHS 141400 CCA
TAFCHS
TAF COR
KCHS 141419Z 1414/1512 06005KT P6SM SCT008 BKN025
      TEMPO 1414/1416 BKN008
     FM141700 06006KT P6SM VCTS SCT025 BKN035CB
      TEMPO 1418/1422 3SM TSRA BR SCT020 BKN035CB
     FM142300 04004KT P6SM SCT025 BKN050
     FM150300 03005KT P6SM SCT015 BKN028=



000
FTUS42 KCHS 141300 AAC
TAFCHS
TAF AMD
KCHS 141353Z 1414/1512 06005KT P6SM SCT007 BKN025
     FM141700 06006KT P6SM VCTS SCT025 BKN035CB
      TEMPO 1418/1422 3SM TSRA BR SCT020 BKN035CB
     FM142300 04004KT P6SM SCT025 BKN050
     FM150300 03005KT P6SM SCT015 BKN028=



000
FTUS42 KCHS 141200 AAB
TAFCHS
TAF AMD
KCHS 141247Z 1413/1512 05006KT P6SM VCSH SCT007 BKN015
      TEMPO 1413/1415 BKN007
     FM141500 06004KT 5SM -TSRA BR SCT025 BKN035CB
      TEMPO 1417/1420 3SM TSRA BR SCT020 BKN035CB
     FM142100 04004KT P6SM SCT025 BKN050
     FM150300 03005KT P6SM SCT015 BKN028=



000
FTUS42 KCHS 141200 AAA
TAFCHS
TAF AMD
KCHS 141234Z 1413/1512 05006KT P6SM VCSH SCT015 BKN100
      TEMPO 1413/1415 BKN015
     FM141500 06004KT 5SM -TSRA BR SCT025 BKN035CB
      TEMPO 1417/1420 3SM TSRA BR SCT020 BKN035CB
     FM142100 04004KT P6SM SCT025 BKN050
     FM150300 03005KT P6SM SCT015 BKN028=



000
FTUS42 KCHS 141100
TAFSAV
TAF
KSAV 141125Z 1412/1512 VRB03KT P6SM SCT050 SCT100
     FM141400 12005KT P6SM SCT040 BKN120
     FM141800 VRB03KT P6SM SCT025 BKN060
      TEMPO 1419/1422 3SM TSRA BR SCT020 BKN040CB
     FM142200 VRB03KT P6SM SCT025 BKN050=



000
FTUS42 KCHS 141100
TAFCHS
TAF
KCHS 141125Z 1412/1512 VRB03KT P6SM VCSH SCT025 BKN100
     FM141500 VRB03KT 5SM -TSRA BR SCT025 BKN035CB
      TEMPO 1417/1420 3SM TSRA BR SCT020 BKN035CB
     FM142100 04004KT P6SM SCT025 BKN050
     FM150300 03005KT P6SM SCT015 BKN028=



000
FTUS42 KCHS 141000 AAB
TAFCHS
TAF AMD
KCHS 141002Z 1410/1506 VRB03KT P6SM -RA SCT025 BKN080
     FM141500 VRB03KT 5SM -SHRA BR SCT025 BKN035
      TEMPO 1417/1420 3SM TSRA BR SCT020 BKN035CB
     FM142100 04004KT P6SM SCT025 BKN050=



000
FTUS42 KCHS 140600 AAA
TAFCHS
TAF AMD
KCHS 140653Z 1407/1506 VRB03KT P6SM VCTS SCT025 BKN060CB
     FM141000 VRB03KT P6SM VCSH BKN025
     FM141500 VRB03KT 5SM -SHRA BR SCT025 BKN035
      TEMPO 1417/1420 3SM TSRA BR SCT020 BKN035CB
     FM142100 04004KT P6SM SCT025 BKN050=



000
FTUS42 KCHS 140500
TAFSAV
TAF
KSAV 140520Z 1406/1506 VRB03KT P6SM SCT050 BKN100
     FM141400 12005KT P6SM SCT030 BKN100
     FM141800 VRB03KT P6SM SCT025 BKN060
      TEMPO 1419/1422 3SM -TSRA BR SCT020 BKN040CB
     FM142200 VRB03KT P6SM SCT025 BKN050=



000
FTUS42 KCHS 140500
TAFCHS
TAF
KCHS 140520Z 1406/1506 VRB03KT P6SM SCT025 BKN040
     FM141000 VRB03KT P6SM VCSH BKN025
     FM141500 VRB03KT 5SM -SHRA BR SCT025 BKN035
      TEMPO 1417/1420 3SM TSRA BR SCT020 BKN035CB
     FM142100 04004KT P6SM SCT025 BKN050=



000
FTUS42 KCHS 132300
TAFSAV
TAF
KSAV 132335Z 1400/1424 VRB03KT P6SM SCT020 BKN150
      TEMPO 1410/1414 SCT005 BKN015
     FM141600 12007KT P6SM VCSH BKN035 OVC150=



000
FTUS42 KCHS 132300
TAFCHS
TAF
KCHS 132335Z 1400/1424 VRB03KT P6SM SCT020 BKN150
     FM141000 VRB03KT P6SM SCT007 BKN035
      TEMPO 1412/1416 6SM SHRA BR BKN015 OVC025
     FM141600 10006KT P6SM -SHRA SCT020 OVC035=



000
FTUS42 KCHS 131900 AAA
TAFSAV
TAF AMD
KSAV 131943Z 1320/1418 14005KT P6SM VCSH SCT030 BKN050
     FM140200 VRB02KT P6SM SCT050 BKN120
      TEMPO 1410/1413 5SM BR BKN012=



000
FTUS42 KCHS 131900 AAA
TAFCHS
TAF AMD
KCHS 131931Z 1320/1418 17008KT P6SM VCSH SCT030 BKN080
     FM140000 VRB03KT P6SM SCT050 BKN100
     FM141000 VRB03KT 6SM BR VCSH SCT007 BKN020
      TEMPO 1410/1413 4SM SHRA BR BKN012=



000
FTUS42 KCHS 131700
TAFSAV
TAF
KSAV 131739Z 1318/1418 14005KT P6SM VCSH SCT030 BKN050
      TEMPO 1318/1321 4SM -TSRA BR BKN040CB
     FM140200 VRB02KT P6SM SCT050 BKN120
      TEMPO 1410/1413 5SM BR BKN012=



000
FTUS42 KCHS 131700
TAFCHS
TAF
KCHS 131739Z 1318/1418 17008KT P6SM VCSH SCT030 BKN080
      TEMPO 1318/1321 4SM -TSRA BR BKN040CB
     FM140000 VRB03KT P6SM SCT050 BKN100
     FM141000 VRB03KT 6SM BR VCSH SCT007 BKN020
      TEMPO 1410/1413 4SM SHRA BR BKN012=



000
FTUS42 KCHS 131500 AAA
TAFCHS
TAF AMD
KCHS 131515Z 1315/1412 VRB03KT P6SM VCSH SCT025 BKN060
     FM131800 17007KT P6SM SCT030 BKN080
      TEMPO 1318/1321 4SM -TSRA BR BKN040CB=



000
FTUS42 KCHS 131100
TAFSAV
TAF
KSAV 131123Z 1312/1412 VRB03KT P6SM SCT250
     FM131500 VRB03KT P6SM SCT050
     FM131800 14006KT P6SM SCT050
     FM140200 VRB03KT P6SM SCT050 BKN120=



000
FTUS42 KCHS 131100
TAFCHS
TAF
KCHS 131123Z 1312/1412 VRB03KT P6SM SCT020
     FM131400 VRB03KT P6SM SCT025 BKN060
     FM131800 17007KT P6SM SCT030 BKN080
      TEMPO 1318/1321 4SM -TSRA BR BKN040CB=



000
FTUS42 KCHS 130500
TAFCHS
TAF
KCHS 130520Z 1306/1406 VRB03KT P6SM SCT020
     FM131400 VRB03KT P6SM SCT025 BKN060
     FM131800 17007KT P6SM SCT030 BKN080
      TEMPO 1318/1321 4SM -TSRA BR BKN040CB=



000
FTUS42 KCHS 130500
TAFSAV
TAF
KSAV 130520Z 1306/1406 VRB03KT P6SM SCT250
     FM131500 VRB03KT P6SM SCT050
     FM131800 14006KT P6SM SCT050=



    US Dept of Commerce
    National Oceanic and Atmospheric Administration
    National Weather Service
    1325 East West Highway
    Silver Spring, MD 20910
    Page Author: NWS Internet Services Team
Disclaimer
Information Quality
Credits
Glossary
Privacy Policy
Freedom of Information Act (FOIA)
About Us
Career Opportunities